sensor_id;sensor_type;location;lat;lon;timestamp;temperature;humidity
43884;DHT22;29544;52.018;5.810;2023-07-13T00:01:04;23.80;56.00
43884;DHT22;29544;52.018;5.810;2023-07-13T00:03:31;23.80;55.90
43884;DHT22;29544;52.018;5.810;2023-07-13T00:06:00;23.80;56.00
43884;DHT22;29544;52.018;5.810;2023-07-13T00:08:26;23.80;56.00
43884;DHT22;29544;52.018;5.810;2023-07-13T00:10:52;23.80;56.00
43884;DHT22;29544;52.018;5.810;2023-07-13T00:13:19;23.80;56.00
43884;DHT22;29544;52.018;5.810;2023-07-13T00:15:45;23.80;56.00
43884;DHT22;29544;52.018;5.810;2023-07-13T00:18:10;23.80;56.10
43884;DHT22;29544;52.018;5.810;2023-07-13T00:20:36;23.70;56.30
43884;DHT22;29544;52.018;5.810;2023-07-13T00:23:01;23.70;56.10
43884;DHT22;29544;52.018;5.810;2023-07-13T00:25:27;23.70;56.10
43884;DHT22;29544;52.018;5.810;2023-07-13T00:27:56;23.70;56.10
43884;DHT22;29544;52.018;5.810;2023-07-13T00:30:21;23.70;56.10
43884;DHT22;29544;52.018;5.810;2023-07-13T00:32:47;23.70;56.10
43884;DHT22;29544;52.018;5.810;2023-07-13T00:35:13;23.70;56.20
43884;DHT22;29544;52.018;5.810;2023-07-13T00:37:39;23.70;56.20
43884;DHT22;29544;52.018;5.810;2023-07-13T00:40:05;23.70;56.30
43884;DHT22;29544;52.018;5.810;2023-07-13T00:42:31;23.70;56.30
43884;DHT22;29544;52.018;5.810;2023-07-13T00:47:45;23.70;56.30
43884;DHT22;29544;52.018;5.810;2023-07-13T00:50:12;23.70;56.30
43884;DHT22;29544;52.018;5.810;2023-07-13T00:52:39;23.60;56.30
43884;DHT22;29544;52.018;5.810;2023-07-13T00:55:06;23.60;56.30
43884;DHT22;29544;52.018;5.810;2023-07-13T00:57:31;23.60;56.40
43884;DHT22;29544;52.018;5.810;2023-07-13T00:59:57;23.60;56.40
43884;DHT22;29544;52.018;5.810;2023-07-13T01:02:24;23.60;56.40
43884;DHT22;29544;52.018;5.810;2023-07-13T01:04:50;23.60;56.40
43884;DHT22;29544;52.018;5.810;2023-07-13T01:07:15;23.60;56.40
43884;DHT22;29544;52.018;5.810;2023-07-13T01:09:41;23.60;56.40
43884;DHT22;29544;52.018;5.810;2023-07-13T01:12:07;23.60;56.40
43884;DHT22;29544;52.018;5.810;2023-07-13T01:14:32;23.60;56.40
43884;DHT22;29544;52.018;5.810;2023-07-13T01:16:58;23.60;56.50
43884;DHT22;29544;52.018;5.810;2023-07-13T01:19:39;23.60;56.50
43884;DHT22;29544;52.018;5.810;2023-07-13T01:22:05;23.50;56.40
43884;DHT22;29544;52.018;5.810;2023-07-13T01:24:34;23.50;56.40
43884;DHT22;29544;52.018;5.810;2023-07-13T01:27:00;23.50;56.40
43884;DHT22;29544;52.018;5.810;2023-07-13T01:29:25;23.50;56.40
43884;DHT22;29544;52.018;5.810;2023-07-13T01:31:51;23.50;56.50
43884;DHT22;29544;52.018;5.810;2023-07-13T01:34:16;23.50;56.40
43884;DHT22;29544;52.018;5.810;2023-07-13T01:36:42;23.50;56.50
43884;DHT22;29544;52.018;5.810;2023-07-13T01:39:07;23.50;56.40
43884;DHT22;29544;52.018;5.810;2023-07-13T01:41:33;23.50;56.50
43884;DHT22;29544;52.018;5.810;2023-07-13T01:43:58;23.50;56.50
43884;DHT22;29544;52.018;5.810;2023-07-13T01:46:24;23.50;56.40
43884;DHT22;29544;52.018;5.810;2023-07-13T01:48:50;23.50;56.50
43884;DHT22;29544;52.018;5.810;2023-07-13T01:51:15;23.40;56.40
43884;DHT22;29544;52.018;5.810;2023-07-13T01:53:41;23.40;56.40
43884;DHT22;29544;52.018;5.810;2023-07-13T01:56:06;23.50;56.50
43884;DHT22;29544;52.018;5.810;2023-07-13T01:58:32;23.40;56.40
43884;DHT22;29544;52.018;5.810;2023-07-13T02:00:57;23.40;56.50
43884;DHT22;29544;52.018;5.810;2023-07-13T02:03:23;23.40;56.40
43884;DHT22;29544;52.018;5.810;2023-07-13T02:05:48;23.40;56.50
43884;DHT22;29544;52.018;5.810;2023-07-13T02:08:14;23.40;56.50
43884;DHT22;29544;52.018;5.810;2023-07-13T02:10:39;23.40;56.50
43884;DHT22;29544;52.018;5.810;2023-07-13T02:13:06;23.40;56.50
43884;DHT22;29544;52.018;5.810;2023-07-13T02:15:31;23.40;56.50
43884;DHT22;29544;52.018;5.810;2023-07-13T02:17:57;23.40;56.50
43884;DHT22;29544;52.018;5.810;2023-07-13T02:20:24;23.40;56.50
43884;DHT22;29544;52.018;5.810;2023-07-13T02:22:49;23.30;56.50
43884;DHT22;29544;52.018;5.810;2023-07-13T02:25:15;23.40;56.50
43884;DHT22;29544;52.018;5.810;2023-07-13T02:27:40;23.40;56.50
43884;DHT22;29544;52.018;5.810;2023-07-13T02:30:06;23.30;56.40
43884;DHT22;29544;52.018;5.810;2023-07-13T02:32:32;23.30;56.40
43884;DHT22;29544;52.018;5.810;2023-07-13T02:34:57;23.30;56.50
43884;DHT22;29544;52.018;5.810;2023-07-13T02:37:22;23.30;56.50
43884;DHT22;29544;52.018;5.810;2023-07-13T02:39:48;23.30;56.50
43884;DHT22;29544;52.018;5.810;2023-07-13T02:42:13;23.30;56.50
43884;DHT22;29544;52.018;5.810;2023-07-13T02:44:39;23.30;56.50
43884;DHT22;29544;52.018;5.810;2023-07-13T02:47:05;23.30;56.50
43884;DHT22;29544;52.018;5.810;2023-07-13T02:49:30;23.30;56.50
43884;DHT22;29544;52.018;5.810;2023-07-13T02:51:56;23.30;56.50
43884;DHT22;29544;52.018;5.810;2023-07-13T02:54:21;23.30;56.50
43884;DHT22;29544;52.018;5.810;2023-07-13T02:56:47;23.30;56.50
43884;DHT22;29544;52.018;5.810;2023-07-13T02:59:12;23.30;56.50
43884;DHT22;29544;52.018;5.810;2023-07-13T03:01:38;23.30;56.50
43884;DHT22;29544;52.018;5.810;2023-07-13T03:04:03;23.20;56.50
43884;DHT22;29544;52.018;5.810;2023-07-13T03:06:30;23.20;56.50
43884;DHT22;29544;52.018;5.810;2023-07-13T03:08:56;23.20;56.50
43884;DHT22;29544;52.018;5.810;2023-07-13T03:11:21;23.20;56.50
43884;DHT22;29544;52.018;5.810;2023-07-13T03:13:47;23.20;56.50
43884;DHT22;29544;52.018;5.810;2023-07-13T03:16:12;23.20;56.50
43884;DHT22;29544;52.018;5.810;2023-07-13T03:18:39;23.20;56.50
43884;DHT22;29544;52.018;5.810;2023-07-13T03:21:05;23.20;56.50
43884;DHT22;29544;52.018;5.810;2023-07-13T03:23:31;23.20;56.50
43884;DHT22;29544;52.018;5.810;2023-07-13T03:26:04;23.20;56.50
43884;DHT22;29544;52.018;5.810;2023-07-13T03:28:30;23.20;56.50
43884;DHT22;29544;52.018;5.810;2023-07-13T03:31:16;23.20;56.60
43884;DHT22;29544;52.018;5.810;2023-07-13T03:33:42;23.10;56.50
43884;DHT22;29544;52.018;5.810;2023-07-13T03:36:10;23.10;56.50
43884;DHT22;29544;52.018;5.810;2023-07-13T03:38:36;23.10;56.50
43884;DHT22;29544;52.018;5.810;2023-07-13T03:41:01;23.10;56.50
43884;DHT22;29544;52.018;5.810;2023-07-13T03:43:27;23.10;56.50
43884;DHT22;29544;52.018;5.810;2023-07-13T03:45:52;23.10;56.50
43884;DHT22;29544;52.018;5.810;2023-07-13T03:48:18;23.10;56.50
43884;DHT22;29544;52.018;5.810;2023-07-13T03:50:43;23.10;56.50
43884;DHT22;29544;52.018;5.810;2023-07-13T03:53:09;23.10;56.50
43884;DHT22;29544;52.018;5.810;2023-07-13T03:55:34;23.10;56.60
43884;DHT22;29544;52.018;5.810;2023-07-13T04:00:45;23.10;56.60
43884;DHT22;29544;52.018;5.810;2023-07-13T04:03:11;23.10;56.60
43884;DHT22;29544;52.018;5.810;2023-07-13T04:05:36;23.10;56.60
43884;DHT22;29544;52.018;5.810;2023-07-13T04:08:02;23.10;56.60
43884;DHT22;29544;52.018;5.810;2023-07-13T04:10:28;23.00;56.60
43884;DHT22;29544;52.018;5.810;2023-07-13T04:12:53;23.00;56.60
43884;DHT22;29544;52.018;5.810;2023-07-13T04:15:19;23.00;56.70
43884;DHT22;29544;52.018;5.810;2023-07-13T04:17:44;23.00;56.70
43884;DHT22;29544;52.018;5.810;2023-07-13T04:20:10;23.00;56.70
43884;DHT22;29544;52.018;5.810;2023-07-13T04:22:35;23.00;56.70
43884;DHT22;29544;52.018;5.810;2023-07-13T04:25:01;23.00;56.70
43884;DHT22;29544;52.018;5.810;2023-07-13T04:27:26;23.00;56.70
43884;DHT22;29544;52.018;5.810;2023-07-13T04:29:53;23.00;56.70
43884;DHT22;29544;52.018;5.810;2023-07-13T04:32:19;23.00;56.80
43884;DHT22;29544;52.018;5.810;2023-07-13T04:34:44;23.00;56.70
43884;DHT22;29544;52.018;5.810;2023-07-13T04:37:10;23.00;56.80
43884;DHT22;29544;52.018;5.810;2023-07-13T04:39:35;23.00;56.80
43884;DHT22;29544;52.018;5.810;2023-07-13T04:42:01;23.00;56.80
43884;DHT22;29544;52.018;5.810;2023-07-13T04:44:27;23.00;56.80
43884;DHT22;29544;52.018;5.810;2023-07-13T04:46:52;22.90;56.80
43884;DHT22;29544;52.018;5.810;2023-07-13T04:49:18;22.90;56.90
43884;DHT22;29544;52.018;5.810;2023-07-13T04:51:44;22.90;56.90
43884;DHT22;29544;52.018;5.810;2023-07-13T04:54:09;22.90;57.00
43884;DHT22;29544;52.018;5.810;2023-07-13T04:56:35;22.90;56.90
43884;DHT22;29544;52.018;5.810;2023-07-13T04:59:00;22.90;56.90
43884;DHT22;29544;52.018;5.810;2023-07-13T05:01:26;22.90;56.90
43884;DHT22;29544;52.018;5.810;2023-07-13T05:03:51;22.90;57.00
43884;DHT22;29544;52.018;5.810;2023-07-13T05:06:17;22.90;57.00
43884;DHT22;29544;52.018;5.810;2023-07-13T05:08:42;22.90;57.00
43884;DHT22;29544;52.018;5.810;2023-07-13T05:11:08;22.90;57.10
43884;DHT22;29544;52.018;5.810;2023-07-13T05:13:33;22.90;57.20
43884;DHT22;29544;52.018;5.810;2023-07-13T05:16:00;22.90;57.10
43884;DHT22;29544;52.018;5.810;2023-07-13T05:18:27;22.90;57.30
43884;DHT22;29544;52.018;5.810;2023-07-13T05:20:59;22.90;57.30
43884;DHT22;29544;52.018;5.810;2023-07-13T05:23:24;22.90;57.30
43884;DHT22;29544;52.018;5.810;2023-07-13T05:25:50;22.90;57.30
43884;DHT22;29544;52.018;5.810;2023-07-13T05:28:15;22.90;57.30
43884;DHT22;29544;52.018;5.810;2023-07-13T05:30:45;22.90;57.30
43884;DHT22;29544;52.018;5.810;2023-07-13T05:33:10;22.80;57.30
43884;DHT22;29544;52.018;5.810;2023-07-13T05:35:35;22.90;57.30
43884;DHT22;29544;52.018;5.810;2023-07-13T05:38:01;22.90;57.30
43884;DHT22;29544;52.018;5.810;2023-07-13T05:40:26;22.90;57.30
43884;DHT22;29544;52.018;5.810;2023-07-13T05:42:52;22.80;57.30
43884;DHT22;29544;52.018;5.810;2023-07-13T05:45:17;22.90;57.40
43884;DHT22;29544;52.018;5.810;2023-07-13T05:47:43;22.90;57.50
43884;DHT22;29544;52.018;5.810;2023-07-13T05:50:08;22.80;57.50
43884;DHT22;29544;52.018;5.810;2023-07-13T05:52:34;22.80;58.10
43884;DHT22;29544;52.018;5.810;2023-07-13T05:55:00;22.80;57.60
43884;DHT22;29544;52.018;5.810;2023-07-13T05:57:25;22.80;57.60
43884;DHT22;29544;52.018;5.810;2023-07-13T05:59:50;22.90;57.70
43884;DHT22;29544;52.018;5.810;2023-07-13T06:02:16;22.80;57.60
43884;DHT22;29544;52.018;5.810;2023-07-13T06:04:41;22.80;57.60
43884;DHT22;29544;52.018;5.810;2023-07-13T06:07:07;22.80;57.70
43884;DHT22;29544;52.018;5.810;2023-07-13T06:09:32;22.80;57.70
43884;DHT22;29544;52.018;5.810;2023-07-13T06:11:58;22.80;57.70
43884;DHT22;29544;52.018;5.810;2023-07-13T06:14:23;22.80;57.70
43884;DHT22;29544;52.018;5.810;2023-07-13T06:16:49;22.80;57.80
43884;DHT22;29544;52.018;5.810;2023-07-13T06:19:14;22.80;57.80
43884;DHT22;29544;52.018;5.810;2023-07-13T06:21:40;22.80;57.80
43884;DHT22;29544;52.018;5.810;2023-07-13T06:24:05;22.80;57.90
43884;DHT22;29544;52.018;5.810;2023-07-13T06:26:31;22.80;57.90
43884;DHT22;29544;52.018;5.810;2023-07-13T06:28:57;22.80;57.90
43884;DHT22;29544;52.018;5.810;2023-07-13T06:31:22;22.80;58.00
43884;DHT22;29544;52.018;5.810;2023-07-13T06:33:48;22.80;58.00
43884;DHT22;29544;52.018;5.810;2023-07-13T06:36:13;22.80;58.00
43884;DHT22;29544;52.018;5.810;2023-07-13T06:38:39;22.80;58.10
43884;DHT22;29544;52.018;5.810;2023-07-13T06:41:05;22.80;58.20
43884;DHT22;29544;52.018;5.810;2023-07-13T06:43:31;22.70;58.20
43884;DHT22;29544;52.018;5.810;2023-07-13T06:45:57;22.80;58.20
43884;DHT22;29544;52.018;5.810;2023-07-13T06:48:22;22.80;58.20
43884;DHT22;29544;52.018;5.810;2023-07-13T06:50:48;22.80;58.30
43884;DHT22;29544;52.018;5.810;2023-07-13T06:53:15;22.80;58.30
43884;DHT22;29544;52.018;5.810;2023-07-13T06:55:40;22.70;58.40
43884;DHT22;29544;52.018;5.810;2023-07-13T06:58:06;22.80;58.40
43884;DHT22;29544;52.018;5.810;2023-07-13T07:00:32;22.70;58.50
43884;DHT22;29544;52.018;5.810;2023-07-13T07:02:57;22.80;58.60
43884;DHT22;29544;52.018;5.810;2023-07-13T07:05:23;22.80;58.60
43884;DHT22;29544;52.018;5.810;2023-07-13T07:07:52;22.80;58.70
43884;DHT22;29544;52.018;5.810;2023-07-13T07:10:18;22.80;58.80
43884;DHT22;29544;52.018;5.810;2023-07-13T07:12:44;22.70;58.70
43884;DHT22;29544;52.018;5.810;2023-07-13T07:15:09;22.70;58.80
43884;DHT22;29544;52.018;5.810;2023-07-13T07:17:35;22.80;58.90
43884;DHT22;29544;52.018;5.810;2023-07-13T07:20:00;22.80;59.00
43884;DHT22;29544;52.018;5.810;2023-07-13T07:22:26;22.80;59.00
43884;DHT22;29544;52.018;5.810;2023-07-13T07:24:53;22.70;59.00
43884;DHT22;29544;52.018;5.810;2023-07-13T07:27:18;22.80;59.20
43884;DHT22;29544;52.018;5.810;2023-07-13T07:29:44;22.70;59.20
43884;DHT22;29544;52.018;5.810;2023-07-13T07:32:09;22.70;59.20
43884;DHT22;29544;52.018;5.810;2023-07-13T07:34:35;22.80;59.40
43884;DHT22;29544;52.018;5.810;2023-07-13T07:37:01;22.80;59.30
43884;DHT22;29544;52.018;5.810;2023-07-13T07:39:27;22.70;59.30
43884;DHT22;29544;52.018;5.810;2023-07-13T07:41:52;22.80;59.50
43884;DHT22;29544;52.018;5.810;2023-07-13T07:44:18;22.70;59.40
43884;DHT22;29544;52.018;5.810;2023-07-13T07:46:43;22.80;59.40
43884;DHT22;29544;52.018;5.810;2023-07-13T07:49:09;22.70;59.40
43884;DHT22;29544;52.018;5.810;2023-07-13T07:51:34;22.80;59.50
43884;DHT22;29544;52.018;5.810;2023-07-13T07:54:00;22.80;59.50
43884;DHT22;29544;52.018;5.810;2023-07-13T07:56:25;22.80;59.50
43884;DHT22;29544;52.018;5.810;2023-07-13T07:58:51;22.80;59.70
43884;DHT22;29544;52.018;5.810;2023-07-13T08:01:16;22.70;59.60
43884;DHT22;29544;52.018;5.810;2023-07-13T08:03:42;22.70;59.60
43884;DHT22;29544;52.018;5.810;2023-07-13T08:06:07;22.70;59.80
43884;DHT22;29544;52.018;5.810;2023-07-13T08:08:34;22.70;59.70
43884;DHT22;29544;52.018;5.810;2023-07-13T08:11:01;22.80;60.00
43884;DHT22;29544;52.018;5.810;2023-07-13T08:13:27;22.80;59.80
43884;DHT22;29544;52.018;5.810;2023-07-13T08:15:52;22.80;60.00
43884;DHT22;29544;52.018;5.810;2023-07-13T08:18:18;22.80;60.10
43884;DHT22;29544;52.018;5.810;2023-07-13T08:20:43;22.80;60.10
43884;DHT22;29544;52.018;5.810;2023-07-13T08:23:10;22.80;60.20
43884;DHT22;29544;52.018;5.810;2023-07-13T08:25:35;22.80;60.00
43884;DHT22;29544;52.018;5.810;2023-07-13T08:28:02;22.80;60.20
43884;DHT22;29544;52.018;5.810;2023-07-13T08:30:27;22.90;60.10
43884;DHT22;29544;52.018;5.810;2023-07-13T08:32:53;22.80;60.10
43884;DHT22;29544;52.018;5.810;2023-07-13T08:35:18;22.80;60.10
43884;DHT22;29544;52.018;5.810;2023-07-13T08:37:44;22.80;60.30
43884;DHT22;29544;52.018;5.810;2023-07-13T08:40:10;22.90;60.80
43884;DHT22;29544;52.018;5.810;2023-07-13T08:42:37;22.90;60.30
43884;DHT22;29544;52.018;5.810;2023-07-13T08:45:19;22.80;60.30
43884;DHT22;29544;52.018;5.810;2023-07-13T08:47:47;22.80;60.20
43884;DHT22;29544;52.018;5.810;2023-07-13T08:50:14;22.90;60.40
43884;DHT22;29544;52.018;5.810;2023-07-13T08:52:41;22.90;60.50
43884;DHT22;29544;52.018;5.810;2023-07-13T08:55:13;22.80;60.40
43884;DHT22;29544;52.018;5.810;2023-07-13T08:57:39;22.80;60.40
43884;DHT22;29544;52.018;5.810;2023-07-13T09:00:09;22.80;60.40
43884;DHT22;29544;52.018;5.810;2023-07-13T09:02:40;22.80;60.30
43884;DHT22;29544;52.018;5.810;2023-07-13T09:07:40;22.90;60.50
43884;DHT22;29544;52.018;5.810;2023-07-13T09:12:53;22.90;60.70
43884;DHT22;29544;52.018;5.810;2023-07-13T09:15:24;22.90;60.70
43884;DHT22;29544;52.018;5.810;2023-07-13T09:17:51;22.90;60.70
43884;DHT22;29544;52.018;5.810;2023-07-13T09:22:52;22.90;60.60
43884;DHT22;29544;52.018;5.810;2023-07-13T09:27:50;22.90;60.50
43884;DHT22;29544;52.018;5.810;2023-07-13T09:30:23;22.90;60.40
43884;DHT22;29544;52.018;5.810;2023-07-13T09:32:51;22.90;60.40
43884;DHT22;29544;52.018;5.810;2023-07-13T09:35:19;22.90;60.40
43884;DHT22;29544;52.018;5.810;2023-07-13T09:37:45;22.90;60.40
43884;DHT22;29544;52.018;5.810;2023-07-13T09:40:22;22.90;60.40
43884;DHT22;29544;52.018;5.810;2023-07-13T09:42:52;22.90;60.40
43884;DHT22;29544;52.018;5.810;2023-07-13T09:45:28;22.90;60.40
43884;DHT22;29544;52.018;5.810;2023-07-13T09:48:04;23.00;60.40
43884;DHT22;29544;52.018;5.810;2023-07-13T09:50:30;23.00;60.30
43884;DHT22;29544;52.018;5.810;2023-07-13T09:52:56;23.00;60.30
43884;DHT22;29544;52.018;5.810;2023-07-13T09:55:31;23.00;60.30
43884;DHT22;29544;52.018;5.810;2023-07-13T09:57:57;23.00;60.40
43884;DHT22;29544;52.018;5.810;2023-07-13T10:00:26;23.00;60.30
43884;DHT22;29544;52.018;5.810;2023-07-13T10:02:59;23.00;60.50
43884;DHT22;29544;52.018;5.810;2023-07-13T10:05:25;23.00;60.40
43884;DHT22;29544;52.018;5.810;2023-07-13T10:07:51;23.00;60.40
43884;DHT22;29544;52.018;5.810;2023-07-13T10:10:18;23.00;60.40
43884;DHT22;29544;52.018;5.810;2023-07-13T10:12:45;23.00;60.50
43884;DHT22;29544;52.018;5.810;2023-07-13T10:15:15;23.00;60.50
43884;DHT22;29544;52.018;5.810;2023-07-13T10:17:40;23.00;60.50
43884;DHT22;29544;52.018;5.810;2023-07-13T10:20:06;23.00;60.50
43884;DHT22;29544;52.018;5.810;2023-07-13T10:25:18;23.00;60.50
43884;DHT22;29544;52.018;5.810;2023-07-13T10:27:44;23.10;60.50
43884;DHT22;29544;52.018;5.810;2023-07-13T10:30:27;23.10;60.60
43884;DHT22;29544;52.018;5.810;2023-07-13T10:32:57;23.10;60.60
43884;DHT22;29544;52.018;5.810;2023-07-13T10:35:23;23.10;60.60
43884;DHT22;29544;52.018;5.810;2023-07-13T10:37:52;23.10;60.70
43884;DHT22;29544;52.018;5.810;2023-07-13T10:41:02;23.10;60.80
43884;DHT22;29544;52.018;5.810;2023-07-13T10:43:17;23.10;61.10
43884;DHT22;29544;52.018;5.810;2023-07-13T10:45:45;23.10;61.10
43884;DHT22;29544;52.018;5.810;2023-07-13T10:48:12;23.20;61.30
43884;DHT22;29544;52.018;5.810;2023-07-13T10:50:40;23.20;61.00
43884;DHT22;29544;52.018;5.810;2023-07-13T10:53:18;23.20;61.00
43884;DHT22;29544;52.018;5.810;2023-07-13T10:58:20;23.20;61.10
43884;DHT22;29544;52.018;5.810;2023-07-13T11:01:08;23.20;61.10
43884;DHT22;29544;52.018;5.810;2023-07-13T11:04:17;23.20;61.10
43884;DHT22;29544;52.018;5.810;2023-07-13T11:08:56;23.30;61.30
43884;DHT22;29544;52.018;5.810;2023-07-13T11:18:48;23.30;61.10
43884;DHT22;29544;52.018;5.810;2023-07-13T11:21:15;23.30;61.10
43884;DHT22;29544;52.018;5.810;2023-07-13T11:23:42;23.30;61.20
43884;DHT22;29544;52.018;5.810;2023-07-13T11:26:51;23.30;61.30
43884;DHT22;29544;52.018;5.810;2023-07-13T11:28:57;23.30;61.20
43884;DHT22;29544;52.018;5.810;2023-07-13T11:31:22;23.30;61.10
43884;DHT22;29544;52.018;5.810;2023-07-13T11:33:50;23.30;61.00
43884;DHT22;29544;52.018;5.810;2023-07-13T11:36:16;23.40;61.70
43884;DHT22;29544;52.018;5.810;2023-07-13T11:38:51;23.40;61.10
43884;DHT22;29544;52.018;5.810;2023-07-13T11:41:17;23.40;61.10
43884;DHT22;29544;52.018;5.810;2023-07-13T11:43:44;23.40;61.10
43884;DHT22;29544;52.018;5.810;2023-07-13T11:46:28;23.40;61.10
43884;DHT22;29544;52.018;5.810;2023-07-13T11:48:53;23.40;61.20
43884;DHT22;29544;52.018;5.810;2023-07-13T11:51:31;23.40;61.20
43884;DHT22;29544;52.018;5.810;2023-07-13T11:54:06;23.40;61.10
43884;DHT22;29544;52.018;5.810;2023-07-13T11:56:32;23.40;61.10
43884;DHT22;29544;52.018;5.810;2023-07-13T11:59:02;23.50;61.30
43884;DHT22;29544;52.018;5.810;2023-07-13T12:01:30;23.50;61.30
43884;DHT22;29544;52.018;5.810;2023-07-13T12:03:58;23.50;61.10
43884;DHT22;29544;52.018;5.810;2023-07-13T12:06:27;23.50;61.10
43884;DHT22;29544;52.018;5.810;2023-07-13T12:08:55;23.50;61.10
43884;DHT22;29544;52.018;5.810;2023-07-13T12:11:21;23.50;61.00
43884;DHT22;29544;52.018;5.810;2023-07-13T12:13:47;23.50;61.00
43884;DHT22;29544;52.018;5.810;2023-07-13T12:16:19;23.60;61.00
43884;DHT22;29544;52.018;5.810;2023-07-13T12:18:47;23.60;60.90
43884;DHT22;29544;52.018;5.810;2023-07-13T12:21:16;23.60;60.80
43884;DHT22;29544;52.018;5.810;2023-07-13T12:23:43;23.60;60.80
43884;DHT22;29544;52.018;5.810;2023-07-13T12:26:09;23.60;60.80
43884;DHT22;29544;52.018;5.810;2023-07-13T12:28:37;23.60;60.70
43884;DHT22;29544;52.018;5.810;2023-07-13T12:31:04;23.60;60.70
43884;DHT22;29544;52.018;5.810;2023-07-13T12:33:31;23.70;60.80
43884;DHT22;29544;52.018;5.810;2023-07-13T12:35:57;23.60;60.70
43884;DHT22;29544;52.018;5.810;2023-07-13T12:38:25;23.70;60.60
43884;DHT22;29544;52.018;5.810;2023-07-13T12:40:51;23.70;60.50
43884;DHT22;29544;52.018;5.810;2023-07-13T12:43:17;23.70;60.50
43884;DHT22;29544;52.018;5.810;2023-07-13T12:48:41;23.70;60.50
43884;DHT22;29544;52.018;5.810;2023-07-13T12:51:08;23.70;60.50
43884;DHT22;29544;52.018;5.810;2023-07-13T12:53:35;23.70;60.50
43884;DHT22;29544;52.018;5.810;2023-07-13T12:56:04;23.70;60.50
43884;DHT22;29544;52.018;5.810;2023-07-13T12:58:38;23.80;60.50
43884;DHT22;29544;52.018;5.810;2023-07-13T13:01:04;23.70;60.40
43884;DHT22;29544;52.018;5.810;2023-07-13T13:06:20;23.80;60.30
43884;DHT22;29544;52.018;5.810;2023-07-13T13:08:45;23.80;60.30
43884;DHT22;29544;52.018;5.810;2023-07-13T13:11:10;23.90;60.20
43884;DHT22;29544;52.018;5.810;2023-07-13T13:13:36;23.90;60.10
43884;DHT22;29544;52.018;5.810;2023-07-13T13:16:21;23.90;60.10
43884;DHT22;29544;52.018;5.810;2023-07-13T13:18:47;23.90;60.10
43884;DHT22;29544;52.018;5.810;2023-07-13T13:21:13;23.90;60.00
43884;DHT22;29544;52.018;5.810;2023-07-13T13:23:38;23.90;60.00
43884;DHT22;29544;52.018;5.810;2023-07-13T13:26:05;24.00;60.00
43884;DHT22;29544;52.018;5.810;2023-07-13T13:28:33;24.00;60.00
43884;DHT22;29544;52.018;5.810;2023-07-13T13:30:59;24.00;59.90
43884;DHT22;29544;52.018;5.810;2023-07-13T13:33:24;24.00;59.90
43884;DHT22;29544;52.018;5.810;2023-07-13T13:35:49;24.00;59.90
43884;DHT22;29544;52.018;5.810;2023-07-13T13:38:16;24.00;59.90
43884;DHT22;29544;52.018;5.810;2023-07-13T13:40:42;24.00;59.80
43884;DHT22;29544;52.018;5.810;2023-07-13T13:43:18;24.00;59.80
43884;DHT22;29544;52.018;5.810;2023-07-13T13:45:44;24.00;59.80
43884;DHT22;29544;52.018;5.810;2023-07-13T13:48:14;24.00;59.80
43884;DHT22;29544;52.018;5.810;2023-07-13T13:50:39;24.10;59.80
43884;DHT22;29544;52.018;5.810;2023-07-13T13:53:08;24.10;59.80
43884;DHT22;29544;52.018;5.810;2023-07-13T13:55:34;24.10;59.70
43884;DHT22;29544;52.018;5.810;2023-07-13T13:58:00;24.10;59.70
43884;DHT22;29544;52.018;5.810;2023-07-13T14:00:25;24.10;59.60
43884;DHT22;29544;52.018;5.810;2023-07-13T14:02:51;24.10;59.60
43884;DHT22;29544;52.018;5.810;2023-07-13T14:05:18;24.10;59.50
43884;DHT22;29544;52.018;5.810;2023-07-13T14:07:45;24.20;59.50
43884;DHT22;29544;52.018;5.810;2023-07-13T14:10:12;24.20;59.50
43884;DHT22;29544;52.018;5.810;2023-07-13T14:12:38;24.20;59.40
43884;DHT22;29544;52.018;5.810;2023-07-13T14:15:04;24.20;59.40
43884;DHT22;29544;52.018;5.810;2023-07-13T14:17:30;24.20;59.40
43884;DHT22;29544;52.018;5.810;2023-07-13T14:19:56;24.20;59.20
43884;DHT22;29544;52.018;5.810;2023-07-13T14:22:25;24.20;59.30
43884;DHT22;29544;52.018;5.810;2023-07-13T14:24:54;24.30;59.30
43884;DHT22;29544;52.018;5.810;2023-07-13T14:27:20;24.20;59.20
43884;DHT22;29544;52.018;5.810;2023-07-13T14:29:46;24.30;59.20
43884;DHT22;29544;52.018;5.810;2023-07-13T14:32:12;24.30;59.10
43884;DHT22;29544;52.018;5.810;2023-07-13T14:34:38;24.30;58.90
43884;DHT22;29544;52.018;5.810;2023-07-13T14:37:03;24.30;59.50
43884;DHT22;29544;52.018;5.810;2023-07-13T14:39:29;24.30;58.80
43884;DHT22;29544;52.018;5.810;2023-07-13T14:41:55;24.30;58.90
43884;DHT22;29544;52.018;5.810;2023-07-13T14:44:23;24.40;58.80
43884;DHT22;29544;52.018;5.810;2023-07-13T14:46:49;24.40;58.80
43884;DHT22;29544;52.018;5.810;2023-07-13T14:49:29;24.30;58.70
43884;DHT22;29544;52.018;5.810;2023-07-13T14:51:56;24.40;58.70
43884;DHT22;29544;52.018;5.810;2023-07-13T14:54:23;24.30;58.60
43884;DHT22;29544;52.018;5.810;2023-07-13T14:56:48;24.40;58.70
43884;DHT22;29544;52.018;5.810;2023-07-13T14:59:14;24.30;58.50
43884;DHT22;29544;52.018;5.810;2023-07-13T15:01:39;24.40;58.60
43884;DHT22;29544;52.018;5.810;2023-07-13T15:04:05;24.30;58.50
43884;DHT22;29544;52.018;5.810;2023-07-13T15:06:31;24.30;58.50
43884;DHT22;29544;52.018;5.810;2023-07-13T15:08:57;24.30;58.40
43884;DHT22;29544;52.018;5.810;2023-07-13T15:11:22;24.30;58.40
43884;DHT22;29544;52.018;5.810;2023-07-13T15:13:48;24.30;58.30
43884;DHT22;29544;52.018;5.810;2023-07-13T15:16:18;24.30;58.20
43884;DHT22;29544;52.018;5.810;2023-07-13T15:18:46;24.30;58.00
43884;DHT22;29544;52.018;5.810;2023-07-13T15:21:13;24.30;58.10
43884;DHT22;29544;52.018;5.810;2023-07-13T15:23:40;24.30;58.20
43884;DHT22;29544;52.018;5.810;2023-07-13T15:26:07;24.30;58.20
43884;DHT22;29544;52.018;5.810;2023-07-13T15:28:33;24.30;58.10
43884;DHT22;29544;52.018;5.810;2023-07-13T15:30:59;24.30;58.10
43884;DHT22;29544;52.018;5.810;2023-07-13T15:33:28;24.30;58.10
43884;DHT22;29544;52.018;5.810;2023-07-13T15:35:54;24.30;58.10
43884;DHT22;29544;52.018;5.810;2023-07-13T15:40:47;24.30;58.10
43884;DHT22;29544;52.018;5.810;2023-07-13T15:43:14;24.30;58.10
43884;DHT22;29544;52.018;5.810;2023-07-13T15:45:40;24.30;58.10
43884;DHT22;29544;52.018;5.810;2023-07-13T15:48:12;24.30;58.10
43884;DHT22;29544;52.018;5.810;2023-07-13T15:50:42;24.30;58.10
43884;DHT22;29544;52.018;5.810;2023-07-13T15:53:08;24.30;58.00
43884;DHT22;29544;52.018;5.810;2023-07-13T15:55:36;24.30;58.00
43884;DHT22;29544;52.018;5.810;2023-07-13T15:58:02;24.30;58.10
43884;DHT22;29544;52.018;5.810;2023-07-13T16:00:28;24.30;58.10
43884;DHT22;29544;52.018;5.810;2023-07-13T16:02:53;24.20;58.00
43884;DHT22;29544;52.018;5.810;2023-07-13T16:05:19;24.20;58.10
43884;DHT22;29544;52.018;5.810;2023-07-13T16:07:47;24.20;58.20